Terminal Aerodrome Forecast
Issued by NWS

Home | Current Version | Previous Version | Text Only | Print | Product List | Glossary On
Versions: 1 2 3 4 5 6 7 8 9 10 11 12 13 14 15 16 17 18
936
FTAK31 PAJN 242330
TAFAJN
TAF
PAJN 242330Z 2500/2524 23006KT P6SM SCT012 OVC050
     FM251000 VRB03KT P6SM SCT002 BKN015 OVC030
     FM251800 VRB03KT P6SM SCT002 SCT015 OVC045=

USA.gov is the U.S. government's official web portal to all federal, state and local government web resources and services.